createdAt,value
2023-05-08T00:01:50.082Z,94.76
2023-05-08T00:04:38.376Z,94.88
2023-05-08T00:07:26.357Z,94.64
2023-05-08T00:10:14.824Z,94.72
2023-05-08T00:13:02.995Z,94.72
2023-05-08T00:15:52.731Z,95.18
2023-05-08T00:18:41.077Z,94.66
2023-05-08T00:21:29.255Z,95.01
2023-05-08T00:24:17.158Z,94.84
2023-05-08T00:27:05.058Z,94.82
2023-05-08T00:29:52.977Z,94.87
2023-05-08T00:32:42.506Z,94.77
2023-05-08T00:35:30.469Z,94.90
2023-05-08T00:38:18.918Z,95.13
2023-05-08T00:41:06.998Z,95.01
2023-05-08T00:43:55.447Z,94.96
2023-05-08T00:46:44.077Z,95.04
2023-05-08T00:49:35.880Z,95.00
2023-05-08T00:52:23.905Z,95.07
2023-05-08T00:55:12.360Z,95.21
2023-05-08T00:58:00.729Z,95.08
2023-05-08T01:00:51.476Z,95.03
2023-05-08T01:03:39.939Z,95.01
2023-05-08T01:06:29.911Z,95.04
2023-05-08T01:09:17.848Z,95.21
2023-05-08T01:12:16.409Z,95.08
2023-05-08T01:15:13.309Z,94.95
2023-05-08T01:18:13.068Z,94.95
2023-05-08T01:21:04.971Z,94.87
2023-05-08T01:24:34.548Z,95.01
2023-05-08T01:27:45.969Z,94.66
2023-05-08T01:30:59.845Z,94.76
2023-05-08T01:33:55.914Z,95.00
2023-05-08T01:36:51.608Z,94.66
2023-05-08T01:39:45.402Z,94.87
2023-05-08T01:42:45.870Z,94.83
2023-05-08T01:45:39.769Z,94.81
2023-05-08T01:48:33.847Z,94.71
2023-05-08T01:51:26.438Z,95.00
2023-05-08T01:54:21.087Z,94.68
2023-05-08T01:57:11.717Z,94.78
2023-05-08T02:00:01.916Z,95.01
2023-05-08T02:02:51.665Z,94.89
2023-05-08T02:05:41.529Z,94.70
2023-05-08T02:08:32.876Z,94.71
2023-05-08T02:11:22.944Z,94.69
2023-05-08T02:14:14.180Z,94.38
2023-05-08T02:17:04.059Z,94.51
2023-05-08T02:19:53.442Z,94.40
2023-05-08T02:22:44.442Z,94.36
2023-05-08T02:25:34.324Z,94.39
2023-05-08T02:28:24.250Z,94.23
2023-05-08T02:31:13.474Z,94.44
2023-05-08T02:34:02.537Z,94.29
2023-05-08T02:36:53.363Z,94.81
2023-05-08T02:39:43.544Z,94.68
2023-05-08T02:42:33.499Z,94.59
2023-05-08T02:45:23.408Z,94.87
2023-05-08T02:48:20.554Z,94.70
2023-05-08T02:51:19.375Z,94.60
2023-05-08T02:54:11.741Z,94.60
2023-05-08T02:57:05.130Z,94.90
2023-05-08T03:00:00.497Z,94.52
2023-05-08T03:02:54.138Z,94.34
2023-05-08T03:05:48.382Z,94.26
2023-05-08T03:08:38.011Z,94.24
2023-05-08T03:11:32.554Z,94.23
2023-05-08T03:14:23.954Z,94.43
2023-05-08T03:17:18.632Z,94.09
2023-05-08T03:20:11.710Z,93.98
2023-05-08T03:23:01.631Z,94.08
2023-05-08T03:25:49.611Z,94.07
2023-05-08T03:28:39.398Z,94.23
2023-05-08T03:31:28.591Z,93.95
2023-05-08T03:34:19.935Z,94.08
2023-05-08T03:37:08.395Z,93.58
2023-05-08T03:39:56.866Z,93.22
2023-05-08T03:42:46.040Z,93.33
2023-05-08T03:45:36.917Z,93.06
2023-05-08T03:48:26.974Z,93.22
2023-05-08T03:51:17.011Z,92.96
2023-05-08T03:54:05.332Z,93.25
2023-05-08T03:56:54.739Z,93.26
2023-05-08T03:59:50.975Z,93.17
2023-05-08T04:02:45.260Z,93.33
2023-05-08T04:05:37.997Z,93.37
2023-05-08T04:08:36.021Z,93.13
2023-05-08T04:11:30.958Z,93.38
2023-05-08T04:14:23.331Z,93.15
2023-05-08T04:17:15.380Z,93.14
2023-05-08T04:20:05.893Z,93.08
2023-05-08T04:22:55.812Z,93.21
2023-05-08T04:25:49.476Z,93.19
2023-05-08T04:28:37.980Z,92.96
2023-05-08T04:31:29.259Z,92.96
2023-05-08T04:34:19.263Z,93.19
2023-05-08T04:37:07.841Z,93.11
2023-05-08T04:39:56.633Z,92.94
2023-05-08T04:42:47.636Z,92.86
2023-05-08T04:45:37.884Z,92.73
2023-05-08T04:48:26.493Z,92.80
2023-05-08T04:51:14.651Z,92.87
2023-05-08T04:54:03.442Z,93.15
2023-05-08T04:56:52.036Z,92.99
2023-05-08T04:59:41.683Z,92.88
2023-05-08T05:02:30.408Z,92.68
2023-05-08T05:05:18.914Z,92.58
2023-05-08T05:08:07.146Z,92.57
2023-05-08T05:10:55.129Z,92.56
2023-05-08T05:13:43.588Z,92.70
2023-05-08T05:16:33.434Z,92.92
2023-05-08T05:19:21.645Z,92.39
2023-05-08T05:22:09.691Z,92.43
2023-05-08T05:24:58.275Z,92.72
2023-05-08T05:27:47.137Z,92.62
2023-05-08T05:30:35.543Z,92.58
2023-05-08T05:33:24.903Z,91.05
2023-05-08T05:36:13.660Z,91.40
2023-05-08T05:39:02.279Z,92.20
2023-05-08T05:41:50.956Z,91.72
2023-05-08T05:44:39.707Z,92.06
2023-05-08T05:47:27.720Z,92.06
2023-05-08T05:50:18.478Z,92.12
2023-05-08T05:53:07.588Z,91.31
2023-05-08T05:55:55.852Z,91.13
2023-05-08T05:58:45.360Z,91.32
2023-05-08T06:01:33.978Z,91.30
2023-05-08T06:04:22.043Z,91.10
2023-05-08T06:07:11.601Z,91.04
2023-05-08T06:09:59.673Z,90.69
2023-05-08T06:12:47.837Z,90.81
2023-05-08T06:15:36.791Z,90.71
2023-05-08T06:18:25.177Z,90.22
2023-05-08T06:21:13.131Z,89.92
2023-05-08T06:24:02.650Z,89.75
2023-05-08T06:26:50.605Z,89.67
2023-05-08T06:29:38.871Z,90.32
2023-05-08T06:32:26.867Z,89.87
2023-05-08T06:35:15.679Z,88.57
2023-05-08T06:38:03.618Z,89.12
2023-05-08T06:40:54.077Z,89.27
2023-05-08T06:43:41.977Z,88.89
2023-05-08T06:46:30.130Z,87.89
2023-05-08T06:49:18.153Z,87.10
2023-05-08T06:52:06.559Z,87.69
2023-05-08T06:54:54.505Z,87.61
2023-05-08T06:57:43.921Z,88.29
2023-05-08T07:00:32.344Z,88.55
2023-05-08T07:03:20.834Z,87.68
2023-05-08T07:06:09.884Z,86.58
2023-05-08T07:08:57.891Z,86.77
2023-05-08T07:11:45.800Z,87.82
2023-05-08T07:14:35.635Z,86.82
2023-05-08T07:17:23.553Z,87.15
2023-05-08T07:20:12.060Z,88.32
2023-05-08T07:22:59.981Z,89.24
2023-05-08T07:25:48.034Z,89.38
2023-05-08T07:28:35.973Z,90.38
2023-05-08T07:31:25.443Z,89.88
2023-05-08T07:34:13.664Z,88.28
2023-05-08T07:37:01.805Z,88.21
2023-05-08T07:39:49.706Z,88.38
2023-05-08T07:42:42.353Z,88.51
2023-05-08T07:45:30.432Z,89.13
2023-05-08T07:48:20.088Z,88.97
2023-05-08T07:51:08.005Z,87.67
2023-05-08T07:53:56.329Z,87.72
2023-05-08T07:56:44.269Z,84.19
2023-05-08T07:59:32.343Z,85.54
2023-05-08T08:02:26.409Z,86.45
2023-05-08T08:05:16.157Z,85.72
2023-05-08T08:08:04.735Z,84.37
2023-05-08T08:10:52.745Z,85.10
2023-05-08T08:13:41.887Z,85.67
2023-05-08T08:16:29.781Z,84.63
2023-05-08T08:19:18.020Z,86.91
2023-05-08T08:22:07.699Z,86.87
2023-05-08T08:24:56.199Z,85.27
2023-05-08T08:27:44.149Z,83.93
2023-05-08T08:30:32.410Z,83.06
2023-05-08T08:33:20.410Z,81.65
2023-05-08T08:36:14.556Z,82.96
2023-05-08T08:39:04.271Z,85.30
2023-05-08T08:41:52.172Z,84.37
2023-05-08T08:44:40.208Z,82.29
2023-05-08T08:47:30.254Z,83.04
2023-05-08T08:50:22.335Z,81.62
2023-05-08T08:53:12.472Z,80.52
2023-05-08T08:56:02.986Z,81.45
2023-05-08T08:58:55.913Z,80.15
2023-05-08T09:01:46.869Z,79.18
2023-05-08T09:04:34.784Z,78.71
2023-05-08T09:07:24.381Z,78.86
2023-05-08T09:10:15.321Z,77.41
2023-05-08T09:13:05.046Z,77.13
2023-05-08T09:15:53.700Z,76.25
2023-05-08T09:18:41.652Z,74.47
2023-05-08T09:21:29.931Z,76.79
2023-05-08T09:24:17.788Z,74.87
2023-05-08T09:27:22.411Z,76.73
2023-05-08T09:30:14.253Z,77.70
2023-05-08T09:33:02.961Z,78.54
2023-05-08T09:35:52.090Z,76.55
2023-05-08T09:38:43.568Z,77.08
2023-05-08T09:41:31.944Z,77.23
2023-05-08T09:44:19.837Z,77.85
2023-05-08T09:47:13.266Z,77.12
2023-05-08T09:50:02.824Z,78.07
2023-05-08T09:52:51.432Z,77.67
2023-05-08T09:55:49.016Z,77.74
2023-05-08T09:58:40.785Z,78.17
2023-05-08T10:01:30.517Z,76.16
2023-05-08T10:04:31.898Z,76.59
2023-05-08T10:07:28.835Z,75.78
2023-05-08T10:10:25.222Z,76.98
2023-05-08T10:13:13.531Z,76.18
2023-05-08T10:16:01.976Z,76.13
2023-05-08T10:18:51.770Z,77.05
2023-05-08T10:21:45.095Z,75.97
2023-05-08T10:24:34.679Z,76.85
2023-05-08T10:27:30.440Z,76.45
2023-05-08T10:30:18.748Z,75.35
2023-05-08T10:33:10.612Z,76.12
2023-05-08T10:35:59.498Z,75.51
2023-05-08T10:38:49.861Z,75.76
2023-05-08T10:41:39.377Z,76.28
2023-05-08T10:44:29.603Z,76.44
2023-05-08T10:47:26.229Z,76.46
2023-05-08T10:50:27.872Z,75.74
2023-05-08T10:53:21.546Z,77.51
2023-05-08T10:56:11.736Z,76.95
2023-05-08T10:59:00.872Z,77.17
2023-05-08T11:01:50.036Z,77.36
2023-05-08T11:04:38.361Z,78.55
2023-05-08T11:07:52.132Z,77.44
2023-05-08T11:10:40.808Z,78.16
2023-05-08T11:13:35.001Z,77.64
2023-05-08T11:17:01.201Z,77.60
2023-05-08T11:19:57.365Z,77.12
2023-05-08T11:22:48.883Z,75.86
2023-05-08T11:25:44.034Z,76.01
2023-05-08T11:28:34.690Z,76.24
2023-05-08T11:31:22.835Z,77.04
2023-05-08T11:34:49.338Z,77.42
2023-05-08T11:37:38.180Z,77.22
2023-05-08T11:40:48.726Z,77.73
2023-05-08T11:44:21.549Z,77.00
2023-05-08T11:47:19.406Z,76.59
2023-05-08T11:50:09.820Z,77.24
2023-05-08T11:52:57.763Z,76.07
2023-05-08T11:55:49.182Z,76.64
2023-05-08T11:58:37.399Z,77.19
2023-05-08T12:01:25.309Z,77.29
2023-05-08T12:04:14.654Z,78.45
2023-05-08T12:07:02.880Z,78.85
2023-05-08T12:09:51.698Z,79.16
2023-05-08T12:12:40.601Z,78.70
2023-05-08T12:15:28.916Z,79.95
2023-05-08T12:18:17.933Z,79.95
2023-05-08T12:21:07.326Z,80.82
2023-05-08T12:23:55.954Z,81.70
2023-05-08T12:26:43.887Z,81.09
2023-05-08T12:30:21.980Z,80.37
2023-05-08T12:33:36.065Z,80.50
2023-05-08T12:36:25.286Z,79.10
2023-05-08T12:39:14.115Z,78.12
2023-05-08T12:42:02.462Z,77.17
2023-05-08T12:44:53.976Z,77.32
2023-05-08T12:47:41.954Z,77.74
2023-05-08T12:50:32.780Z,78.40
2023-05-08T12:53:23.375Z,78.33
2023-05-08T12:56:11.576Z,77.62
2023-05-08T12:59:00.232Z,77.52
2023-05-08T13:01:51.885Z,77.69
2023-05-08T13:04:39.941Z,77.30
2023-05-08T13:07:32.977Z,76.73
2023-05-08T13:10:24.419Z,75.46
2023-05-08T13:13:13.940Z,75.34
2023-05-08T13:16:04.192Z,74.89
2023-05-08T13:18:52.505Z,74.66
2023-05-08T13:21:40.407Z,73.15
2023-05-08T13:24:28.478Z,73.04
2023-05-08T13:27:17.965Z,72.64
2023-05-08T13:30:07.188Z,71.78
2023-05-08T13:32:55.519Z,72.73
2023-05-08T13:35:43.474Z,71.48
2023-05-08T13:38:31.858Z,72.94
2023-05-08T13:41:19.744Z,72.43
2023-05-08T13:44:09.382Z,73.22
2023-05-08T13:46:57.343Z,73.39
2023-05-08T13:49:46.946Z,70.94
2023-05-08T13:52:35.029Z,72.70
2023-05-08T13:55:23.602Z,71.71
2023-05-08T13:58:12.150Z,71.89
2023-05-08T14:01:10.308Z,71.46
2023-05-08T14:04:06.934Z,71.15
2023-05-08T14:06:54.983Z,70.78
2023-05-08T14:09:43.263Z,68.47
2023-05-08T14:12:35.701Z,68.73
2023-05-08T14:15:27.012Z,69.50
2023-05-08T14:18:21.251Z,68.96
2023-05-08T14:21:09.133Z,69.36
2023-05-08T14:23:57.285Z,68.92
2023-05-08T14:26:45.246Z,68.70
2023-05-08T14:29:33.493Z,66.64
2023-05-08T14:32:21.472Z,67.09
2023-05-08T14:35:11.540Z,66.84
2023-05-08T14:37:59.479Z,68.01
2023-05-08T14:40:51.050Z,66.96
2023-05-08T14:43:38.963Z,68.53
2023-05-08T14:46:27.333Z,68.00
2023-05-08T14:49:22.232Z,68.33
2023-05-08T14:52:18.494Z,66.63
2023-05-08T14:55:07.972Z,68.76
2023-05-08T14:57:56.309Z,67.42
2023-05-08T15:00:44.485Z,67.15
2023-05-08T15:03:32.485Z,68.66
2023-05-08T15:06:22.236Z,68.89
2023-05-08T15:09:11.581Z,70.16
2023-05-08T15:12:00.107Z,70.27
2023-05-08T15:14:48.409Z,70.04
2023-05-08T15:17:36.530Z,70.86
2023-05-08T15:20:24.742Z,70.19
2023-05-08T15:23:12.643Z,69.18
2023-05-08T15:26:04.295Z,69.01
2023-05-08T15:28:52.288Z,69.96
2023-05-08T15:31:40.487Z,69.93
2023-05-08T15:34:32.499Z,69.17
2023-05-08T15:37:21.075Z,69.92
2023-05-08T15:40:10.228Z,70.60
2023-05-08T15:42:59.610Z,70.24
2023-05-08T15:45:47.821Z,70.54
2023-05-08T15:48:35.793Z,69.98
2023-05-08T15:51:24.134Z,69.66
2023-05-08T15:54:12.001Z,70.53
2023-05-08T15:57:00.177Z,70.24
2023-05-08T15:59:49.451Z,71.14
2023-05-08T16:02:37.663Z,71.91
2023-05-08T16:05:25.592Z,71.10
2023-05-08T16:08:14.208Z,70.80
2023-05-08T16:11:02.154Z,71.76
2023-05-08T16:13:50.367Z,71.79
2023-05-08T16:16:41.149Z,70.25
2023-05-08T16:19:29.711Z,71.13
2023-05-08T16:22:17.605Z,70.58
2023-05-08T16:25:06.286Z,70.85
2023-05-08T16:27:54.220Z,69.89
2023-05-08T16:30:42.564Z,69.76
2023-05-08T16:33:33.006Z,68.85
2023-05-08T16:36:21.186Z,68.63
2023-05-08T16:39:09.265Z,69.54
2023-05-08T16:41:57.555Z,70.07
2023-05-08T16:44:45.513Z,70.35
2023-05-08T16:47:34.298Z,70.57
2023-05-08T16:50:23.605Z,70.38
2023-05-08T16:53:11.562Z,70.94
2023-05-08T16:55:59.474Z,71.21
2023-05-08T16:58:47.838Z,70.63
2023-05-08T17:01:35.780Z,70.74
2023-05-08T17:04:23.869Z,70.42
2023-05-08T17:07:13.146Z,71.74
2023-05-08T17:10:01.345Z,71.83
2023-05-08T17:12:50.518Z,72.65
2023-05-08T17:15:39.974Z,72.40
2023-05-08T17:18:27.848Z,72.02
2023-05-08T17:21:16.278Z,72.89
2023-05-08T17:24:06.344Z,72.29
2023-05-08T17:26:54.385Z,73.74
2023-05-08T17:29:42.277Z,73.43
2023-05-08T17:32:30.435Z,73.82
2023-05-08T17:35:18.431Z,74.74
2023-05-08T17:38:06.554Z,75.04
2023-05-08T17:40:56.285Z,75.64
2023-05-08T17:43:44.586Z,76.47
2023-05-08T17:46:32.480Z,75.94
2023-05-08T17:49:20.509Z,75.97
2023-05-08T17:52:08.439Z,76.89
2023-05-08T17:54:56.694Z,77.46
2023-05-08T17:57:45.957Z,77.75
2023-05-08T18:00:34.157Z,77.62
2023-05-08T18:03:22.237Z,78.54
2023-05-08T18:06:10.227Z,78.87
2023-05-08T18:08:58.178Z,78.80
2023-05-08T18:11:46.442Z,79.46
2023-05-08T18:14:35.760Z,79.09
2023-05-08T18:17:24.099Z,79.27
2023-05-08T18:20:12.840Z,80.51
2023-05-08T18:23:01.321Z,80.63
2023-05-08T18:25:49.228Z,80.52
2023-05-08T18:28:37.637Z,81.29
2023-05-08T18:31:26.947Z,81.63
2023-05-08T18:34:15.306Z,82.64
2023-05-08T18:37:03.246Z,82.64
2023-05-08T18:39:51.717Z,82.96
2023-05-08T18:42:39.614Z,82.86
2023-05-08T18:45:28.214Z,82.94
2023-05-08T18:48:17.466Z,83.70
2023-05-08T18:51:06.435Z,83.63
2023-05-08T18:53:57.042Z,84.63
2023-05-08T18:56:45.199Z,84.91
2023-05-08T18:59:33.098Z,85.57
2023-05-08T19:02:21.298Z,85.68
2023-05-08T19:05:10.856Z,86.03
2023-05-08T19:07:59.172Z,86.76
2023-05-08T19:10:47.105Z,86.96
2023-05-08T19:13:35.205Z,86.97
2023-05-08T19:16:23.183Z,87.38
2023-05-08T19:19:11.376Z,87.72
2023-05-08T19:22:00.675Z,88.17
2023-05-08T19:24:48.983Z,88.18
2023-05-08T19:27:36.966Z,88.51
2023-05-08T19:30:25.040Z,88.79
2023-05-08T19:33:12.979Z,88.71
2023-05-08T19:36:01.073Z,88.86
2023-05-08T19:38:50.290Z,88.85
2023-05-08T19:41:38.570Z,88.37
2023-05-08T19:44:27.936Z,88.37
2023-05-08T19:47:16.393Z,89.00
2023-05-08T19:50:04.678Z,89.08
2023-05-08T19:52:52.992Z,88.96
2023-05-08T19:55:42.245Z,89.01
2023-05-08T19:58:30.200Z,87.94
2023-05-08T20:01:18.165Z,87.19
2023-05-08T20:04:06.719Z,87.24
2023-05-08T20:06:54.681Z,87.31
2023-05-08T20:09:42.908Z,87.50
2023-05-08T20:12:32.130Z,87.33
2023-05-08T20:15:20.821Z,87.24
2023-05-08T20:18:09.307Z,86.87
2023-05-08T20:20:57.562Z,87.34
2023-05-08T20:23:45.494Z,86.07
2023-05-08T20:26:34.519Z,86.94
2023-05-08T20:29:24.412Z,85.88
2023-05-08T20:32:15.054Z,86.03
2023-05-08T20:35:03.138Z,86.10
2023-05-08T20:37:51.049Z,86.10
2023-05-08T20:40:39.326Z,85.72
2023-05-08T20:43:27.217Z,85.90
2023-05-08T20:46:16.893Z,85.61
2023-05-08T20:49:05.946Z,85.78
2023-05-08T20:51:53.851Z,86.00
2023-05-08T20:54:44.289Z,85.67
2023-05-08T20:57:32.519Z,85.99
2023-05-08T21:00:21.138Z,84.78
2023-05-08T21:03:10.861Z,85.35
2023-05-08T21:05:58.776Z,84.07
2023-05-08T21:08:47.056Z,84.59
2023-05-08T21:11:35.037Z,84.65
2023-05-08T21:14:23.376Z,84.64
2023-05-08T21:17:11.260Z,85.14
2023-05-08T21:20:00.560Z,84.19
2023-05-08T21:22:48.457Z,84.71
2023-05-08T21:25:36.600Z,84.63
2023-05-08T21:28:25.047Z,85.00
2023-05-08T21:31:13.010Z,85.21
2023-05-08T21:34:01.243Z,84.78
2023-05-08T21:36:50.513Z,84.77
2023-05-08T21:39:38.747Z,84.60
2023-05-08T21:42:26.698Z,84.79
2023-05-08T21:45:15.464Z,84.71
2023-05-08T21:48:03.776Z,83.22
2023-05-08T21:50:52.171Z,83.84
2023-05-08T21:53:41.586Z,83.89
2023-05-08T21:56:29.478Z,83.56
2023-05-08T21:59:18.389Z,83.81
2023-05-08T22:02:06.405Z,83.44
2023-05-08T22:04:54.688Z,83.78
2023-05-08T22:07:42.671Z,84.01
2023-05-08T22:10:32.217Z,84.24
2023-05-08T22:13:20.222Z,84.13
2023-05-08T22:16:09.402Z,84.22
2023-05-08T22:18:57.390Z,84.00
2023-05-08T22:21:45.693Z,84.31
2023-05-08T22:24:33.772Z,83.50
2023-05-08T22:27:23.008Z,83.64
2023-05-08T22:30:11.562Z,83.13
2023-05-08T22:33:00.100Z,83.85
2023-05-08T22:35:48.063Z,83.67
2023-05-08T22:38:35.938Z,83.40
2023-05-08T22:41:24.168Z,83.84
2023-05-08T22:44:13.623Z,83.51
2023-05-08T22:47:02.282Z,83.25
2023-05-08T22:49:50.491Z,83.53
2023-05-08T22:52:39.479Z,83.14
2023-05-08T22:55:27.575Z,83.43
2023-05-08T22:58:15.616Z,83.31
2023-05-08T23:01:05.286Z,84.22
2023-05-08T23:03:53.730Z,84.13
2023-05-08T23:06:41.894Z,84.67
2023-05-08T23:09:30.692Z,84.58
2023-05-08T23:12:18.983Z,84.46
2023-05-08T23:15:08.312Z,84.68
2023-05-08T23:17:58.045Z,84.56
2023-05-08T23:20:46.422Z,85.83
2023-05-08T23:23:34.470Z,85.74
2023-05-08T23:26:22.680Z,85.81
2023-05-08T23:29:10.563Z,86.59
2023-05-08T23:31:58.740Z,86.34
2023-05-08T23:34:48.062Z,86.36
2023-05-08T23:37:36.171Z,86.68
2023-05-08T23:40:24.359Z,86.48
2023-05-08T23:43:12.514Z,86.95
2023-05-08T23:46:00.739Z,86.72
2023-05-08T23:48:48.689Z,87.24
2023-05-08T23:51:38.215Z,87.63
2023-05-08T23:54:26.794Z,87.58
2023-05-08T23:57:15.406Z,88.10
